Time;durP1;ratioP1;P1;durP2;ratioP2;P2;SDS_P1;SDS_P2;PMS_P1;PMS_P2;Temp;Humidity;BMP_temperature;BMP_pressure;BME280_temperature;BME280_humidity;BME280_pressure;Samples;Min_cycle;Max_cycle;Signal;HPM_P1;HPM_P2
2022/10/10 00:01:32;;;;;;;;;;;9.90;99.90;;;;;;5079265;28;20445;-78
2022/10/10 00:03:58;;;;;;;;;;;9.80;99.90;;;;;;5082203;28;19912;-80
2022/10/10 00:06:24;;;;;;;;;;;9.80;99.90;;;;;;5074819;28;20003;-78
2022/10/10 00:08:50;;;;;;;;;;;9.80;99.90;;;;;;5074872;28;19912;-79
2022/10/10 00:11:17;;;;;;;;;;;9.80;99.90;;;;;;5075831;28;20011;-80
2022/10/10 00:13:43;;;;;;;;;;;9.80;99.90;;;;;;5077088;28;19920;-80
2022/10/10 00:16:09;;;;;;;;;;;9.80;99.90;;;;;;5082414;28;19916;-79
2022/10/10 00:18:34;;;;;;;;;;;9.80;99.90;;;;;;5077049;28;20341;-80
2022/10/10 00:21:00;;;;;;;;;;;9.70;99.90;;;;;;5080299;28;19912;-79
2022/10/10 00:23:26;;;;;;;;;;;9.70;99.90;;;;;;5081957;28;19915;-79
2022/10/10 00:25:52;;;;;;;;;;;9.70;99.90;;;;;;5078416;28;20011;-80
2022/10/10 00:28:17;;;;;;;;;;;9.70;99.90;;;;;;5077308;28;19909;-78
2022/10/10 00:30:43;;;;;;;;;;;9.70;99.90;;;;;;5076720;28;20337;-81
2022/10/10 00:33:09;;;;;;;;;;;9.60;99.90;;;;;;5077604;28;19908;-81
2022/10/10 00:35:35;;;;;;;;;;;9.60;99.90;;;;;;5076546;28;20001;-79
2022/10/10 00:38:01;;;;;;;;;;;9.60;99.90;;;;;;5076994;28;19948;-80
2022/10/10 00:40:26;;;;;;;;;;;9.50;99.90;;;;;;5075662;28;19920;-80
2022/10/10 00:42:52;;;;;;;;;;;9.50;99.90;;;;;;5076828;28;20428;-80
2022/10/10 00:45:36;;;;;;;;;;;9.50;99.90;;;;;;5076111;28;19956;-80
2022/10/10 00:48:04;;;;;;;;;;;9.50;99.90;;;;;;5076929;28;19912;-80
2022/10/10 00:50:32;;;;;;;;;;;9.50;99.90;;;;;;5057758;28;19931;-79
2022/10/10 00:52:58;;;;;;;;;;;9.40;99.90;;;;;;5075693;28;19912;-79
2022/10/10 00:55:24;;;;;;;;;;;9.40;99.90;;;;;;5076386;28;19909;-80
2022/10/10 00:57:49;;;;;;;;;;;9.40;99.90;;;;;;5075095;28;19913;-79
2022/10/10 01:00:15;;;;;;;;;;;9.40;99.90;;;;;;5074918;28;19946;-79
2022/10/10 01:02:41;;;;;;;;;;;9.40;99.90;;;;;;5080588;28;19955;-79
2022/10/10 01:05:07;;;;;;;;;;;9.40;99.90;;;;;;5080774;28;20273;-79
2022/10/10 01:07:33;;;;;;;;;;;9.40;99.90;;;;;;5078025;28;19919;-80
2022/10/10 01:10:05;;;;;;;;;;;9.40;99.90;;;;;;5081184;28;19916;-79
2022/10/10 01:12:33;;;;;;;;;;;9.50;99.90;;;;;;5077581;28;19919;-78
2022/10/10 01:15:02;;;;;;;;;;;9.50;99.90;;;;;;5078232;28;20331;-79
2022/10/10 01:17:31;;;;;;;;;;;9.50;99.90;;;;;;5079142;28;19999;-79
2022/10/10 01:20:07;;;;;;;;;;;9.60;99.90;;;;;;5080000;28;19976;-79
2022/10/10 01:22:56;;;;;;;;;;;9.60;99.90;;;;;;5060348;28;19913;-79
2022/10/10 01:25:27;;;;;;;;;;;9.60;99.90;;;;;;5038468;28;19920;-80
2022/10/10 01:27:52;;;;;;;;;;;9.60;99.90;;;;;;5078304;28;19966;-80
2022/10/10 01:30:20;;;;;;;;;;;9.60;99.90;;;;;;5077453;28;20384;-79
2022/10/10 01:32:52;;;;;;;;;;;9.60;99.90;;;;;;5078659;28;19920;-80
2022/10/10 01:35:17;;;;;;;;;;;9.50;99.90;;;;;;5080085;28;19913;-78
2022/10/10 01:38:01;;;;;;;;;;;9.50;99.90;;;;;;5076182;28;19972;-78
2022/10/10 01:40:42;;;;;;;;;;;9.50;99.90;;;;;;5075766;28;19920;-80
2022/10/10 01:43:08;;;;;;;;;;;9.50;99.90;;;;;;5078708;28;19912;-79
2022/10/10 01:45:34;;;;;;;;;;;9.50;99.90;;;;;;5083626;28;19912;-78
2022/10/10 01:48:01;;;;;;;;;;;9.40;99.90;;;;;;5080432;28;20031;-79
2022/10/10 01:50:28;;;;;;;;;;;9.40;99.90;;;;;;5082255;28;19987;-80
2022/10/10 01:53:03;;;;;;;;;;;9.40;99.90;;;;;;5085069;28;19912;-79
2022/10/10 01:55:37;;;;;;;;;;;9.40;99.90;;;;;;5074598;28;19977;-80
2022/10/10 01:58:03;;;;;;;;;;;9.30;99.90;;;;;;5075023;28;20368;-79
2022/10/10 02:00:31;;;;;;;;;;;9.40;99.90;;;;;;5058883;28;19936;-78
2022/10/10 02:03:01;;;;;;;;;;;9.40;99.90;;;;;;5076498;28;19919;-79
2022/10/10 02:05:31;;;;;;;;;;;9.40;99.90;;;;;;5076216;28;19946;-79
2022/10/10 02:08:02;;;;;;;;;;;9.40;99.90;;;;;;5076304;28;19919;-81
2022/10/10 02:10:30;;;;;;;;;;;9.30;99.90;;;;;;5076753;28;19924;-78
2022/10/10 02:12:57;;;;;;;;;;;9.30;99.90;;;;;;5073644;28;19913;-79
2022/10/10 02:15:24;;;;;;;;;;;9.30;99.90;;;;;;5074141;28;20575;-78
2022/10/10 02:17:50;;;;;;;;;;;9.30;99.90;;;;;;5076158;28;20387;-79
2022/10/10 02:20:18;;;;;;;;;;;9.30;99.90;;;;;;5077355;28;19912;-79
2022/10/10 02:22:44;;;;;;;;;;;9.30;99.90;;;;;;5079416;28;20367;-79
2022/10/10 02:25:09;;;;;;;;;;;9.20;99.90;;;;;;5081460;28;20015;-78
2022/10/10 02:27:38;;;;;;;;;;;9.20;99.90;;;;;;5081814;28;19966;-78
2022/10/10 02:30:05;;;;;;;;;;;9.20;99.90;;;;;;5076686;28;19944;-80
2022/10/10 02:32:32;;;;;;;;;;;9.20;99.90;;;;;;5080881;28;19909;-78
2022/10/10 02:35:02;;;;;;;;;;;9.10;99.90;;;;;;5081354;28;19944;-80
2022/10/10 02:37:28;;;;;;;;;;;9.10;99.90;;;;;;5092804;28;19924;-79
2022/10/10 02:39:56;;;;;;;;;;;9.10;99.90;;;;;;5100137;28;19905;-79
2022/10/10 02:42:23;;;;;;;;;;;9.10;99.90;;;;;;5100343;28;19912;-79
2022/10/10 02:44:49;;;;;;;;;;;9.10;99.90;;;;;;5086666;28;19916;-78
2022/10/10 02:47:15;;;;;;;;;;;9.10;99.90;;;;;;5086415;28;19947;-79
2022/10/10 02:49:40;;;;;;;;;;;9.10;99.90;;;;;;5081221;28;19912;-79
2022/10/10 02:52:06;;;;;;;;;;;9.10;99.90;;;;;;5078240;28;19913;-81
2022/10/10 02:54:32;;;;;;;;;;;9.10;99.90;;;;;;5085979;28;19913;-78
2022/10/10 02:56:58;;;;;;;;;;;9.10;99.90;;;;;;5084004;28;19916;-79
2022/10/10 02:59:23;;;;;;;;;;;9.10;99.90;;;;;;5087394;28;19913;-78
2022/10/10 03:01:49;;;;;;;;;;;9.10;99.90;;;;;;5088206;28;19912;-79
2022/10/10 03:04:15;;;;;;;;;;;9.00;99.90;;;;;;5084891;28;19920;-78
2022/10/10 03:06:41;;;;;;;;;;;9.10;99.90;;;;;;5085425;28;19930;-78
2022/10/10 03:09:06;;;;;;;;;;;9.10;99.90;;;;;;5083490;28;19917;-78
2022/10/10 03:11:32;;;;;;;;;;;9.20;99.90;;;;;;5084466;28;19909;-78
2022/10/10 03:13:58;;;;;;;;;;;9.30;99.90;;;;;;5085647;28;19912;-78
2022/10/10 03:16:23;;;;;;;;;;;9.40;99.90;;;;;;5066522;28;19916;-80
2022/10/10 03:18:49;;;;;;;;;;;9.40;99.90;;;;;;5085231;28;19947;-78
2022/10/10 03:21:15;;;;;;;;;;;9.40;99.90;;;;;;5080350;28;19920;-79
2022/10/10 03:23:41;;;;;;;;;;;9.50;99.90;;;;;;5080295;28;19947;-80
2022/10/10 03:26:06;;;;;;;;;;;9.50;99.90;;;;;;5098775;28;19936;-80
2022/10/10 03:28:32;;;;;;;;;;;9.50;99.90;;;;;;5098191;28;19905;-80
2022/10/10 03:30:57;;;;;;;;;;;9.50;99.90;;;;;;5089015;28;20003;-79
2022/10/10 03:33:23;;;;;;;;;;;9.60;99.90;;;;;;5079915;28;20330;-80
2022/10/10 03:35:49;;;;;;;;;;;9.60;99.90;;;;;;5078081;28;19909;-80
2022/10/10 03:38:15;;;;;;;;;;;9.60;99.90;;;;;;5077270;28;19913;-80
2022/10/10 03:40:42;;;;;;;;;;;9.70;99.90;;;;;;5063121;28;20003;-78
2022/10/10 03:43:08;;;;;;;;;;;9.70;99.90;;;;;;5082521;28;19920;-79
2022/10/10 03:45:34;;;;;;;;;;;9.70;99.90;;;;;;5077704;28;19913;-80
2022/10/10 03:48:00;;;;;;;;;;;9.80;99.90;;;;;;5077756;28;19919;-79
2022/10/10 03:50:26;;;;;;;;;;;9.90;99.90;;;;;;5090700;28;19908;-80
2022/10/10 03:52:51;;;;;;;;;;;9.90;99.90;;;;;;5097946;28;19912;-79
2022/10/10 03:55:17;;;;;;;;;;;9.90;99.90;;;;;;5090031;28;19939;-78
2022/10/10 03:57:43;;;;;;;;;;;10.00;99.90;;;;;;5092563;28;19919;-79
2022/10/10 04:00:09;;;;;;;;;;;10.00;99.90;;;;;;5092656;28;20001;-80
2022/10/10 04:02:34;;;;;;;;;;;10.10;99.90;;;;;;5093483;28;19912;-80
2022/10/10 04:05:00;;;;;;;;;;;10.20;99.90;;;;;;5098617;28;19927;-80
2022/10/10 04:07:27;;;;;;;;;;;10.20;99.90;;;;;;5098080;28;19950;-80
2022/10/10 04:09:53;;;;;;;;;;;10.20;99.90;;;;;;5094534;28;19920;-80
2022/10/10 04:12:19;;;;;;;;;;;10.20;99.90;;;;;;5085920;28;19916;-80
2022/10/10 04:14:44;;;;;;;;;;;10.30;99.90;;;;;;5087579;28;19931;-80
2022/10/10 04:17:10;;;;;;;;;;;10.30;99.90;;;;;;5085863;28;20281;-79
2022/10/10 04:19:35;;;;;;;;;;;10.30;99.90;;;;;;5080676;28;20375;-80
2022/10/10 04:22:01;;;;;;;;;;;10.30;99.90;;;;;;5079531;28;20001;-81
2022/10/10 04:24:27;;;;;;;;;;;10.30;99.90;;;;;;5090183;28;19916;-80
2022/10/10 04:26:53;;;;;;;;;;;10.30;99.90;;;;;;5097642;28;20269;-80
2022/10/10 04:29:18;;;;;;;;;;;10.30;99.90;;;;;;5094232;28;20004;-80
2022/10/10 04:31:44;;;;;;;;;;;10.30;99.90;;;;;;5094177;28;19913;-80
2022/10/10 04:34:10;;;;;;;;;;;10.30;99.90;;;;;;5095247;28;19956;-80
2022/10/10 04:36:35;;;;;;;;;;;10.40;99.90;;;;;;5094495;28;20406;-79
2022/10/10 04:39:01;;;;;;;;;;;10.40;99.90;;;;;;5095312;28;19936;-80
2022/10/10 04:41:27;;;;;;;;;;;10.40;99.90;;;;;;5095210;28;20390;-79
2022/10/10 04:43:52;;;;;;;;;;;10.40;99.90;;;;;;5096061;28;19905;-80
2022/10/10 04:46:18;;;;;;;;;;;10.30;99.90;;;;;;5095488;28;19934;-80
2022/10/10 04:48:44;;;;;;;;;;;10.30;99.90;;;;;;5096225;28;19908;-79
2022/10/10 04:51:09;;;;;;;;;;;10.40;99.90;;;;;;5096292;28;19912;-79
2022/10/10 04:53:35;;;;;;;;;;;10.30;99.90;;;;;;5097670;28;19916;-80
2022/10/10 04:56:01;;;;;;;;;;;10.40;99.90;;;;;;5097121;28;19912;-79
2022/10/10 04:58:26;;;;;;;;;;;10.30;99.90;;;;;;5097633;28;19960;-80
2022/10/10 05:00:52;;;;;;;;;;;10.30;99.90;;;;;;5097513;28;19917;-79
2022/10/10 05:03:19;;;;;;;;;;;10.40;99.90;;;;;;5097190;28;19897;-80
2022/10/10 05:05:44;;;;;;;;;;;10.40;99.90;;;;;;5097533;28;19913;-81
2022/10/10 05:10:58;;;;;;;;;;;10.40;99.90;;;;;;5012033;28;19945;-88
2022/10/10 05:13:24;;;;;;;;;;;10.40;99.90;;;;;;5012253;28;19914;-86
2022/10/10 05:15:51;;;;;;;;;;;10.40;99.90;;;;;;4994445;28;19909;-87
2022/10/10 05:18:17;;;;;;;;;;;10.40;99.90;;;;;;4995951;28;20494;-86
2022/10/10 05:20:46;;;;;;;;;;;10.40;99.90;;;;;;5018872;28;19906;-89
2022/10/10 05:23:15;;;;;;;;;;;10.40;99.90;;;;;;5001847;28;19980;-88
2022/10/10 05:25:48;;;;;;;;;;;10.40;99.90;;;;;;4985605;28;19921;-90
2022/10/10 05:28:13;;;;;;;;;;;10.40;99.90;;;;;;5001301;28;19918;-89
2022/10/10 05:30:39;;;;;;;;;;;10.50;99.90;;;;;;5023264;23;19923;-89
2022/10/10 05:33:05;;;;;;;;;;;10.50;99.90;;;;;;5057274;28;19905;-89
2022/10/10 05:35:31;;;;;;;;;;;10.50;99.90;;;;;;5052850;28;19909;-87
2022/10/10 05:37:57;;;;;;;;;;;10.50;99.90;;;;;;5032001;28;19936;-90
2022/10/10 05:40:23;;;;;;;;;;;10.50;99.90;;;;;;5051035;28;19907;-88
2022/10/10 05:42:49;;;;;;;;;;;10.50;99.90;;;;;;5041325;28;19905;-88
2022/10/10 05:45:14;;;;;;;;;;;10.50;99.90;;;;;;5058074;28;19900;-88
2022/10/10 05:47:40;;;;;;;;;;;10.50;99.90;;;;;;5055663;28;19944;-90
2022/10/10 05:50:06;;;;;;;;;;;10.50;99.90;;;;;;5069174;28;19964;-89
2022/10/10 05:52:34;;;;;;;;;;;10.50;99.90;;;;;;5053718;28;19913;-87
2022/10/10 05:54:59;;;;;;;;;;;10.50;99.90;;;;;;5037478;28;19893;-89
2022/10/10 05:57:25;;;;;;;;;;;10.50;99.90;;;;;;5040570;28;19916;-88
2022/10/10 05:59:54;;;;;;;;;;;10.50;99.90;;;;;;5045542;28;19909;-89
2022/10/10 06:02:20;;;;;;;;;;;10.50;99.90;;;;;;5058288;28;19936;-89
2022/10/10 06:04:45;;;;;;;;;;;10.60;99.90;;;;;;5054764;28;19940;-89
2022/10/10 06:07:11;;;;;;;;;;;10.60;99.90;;;;;;5072962;28;19948;-88
2022/10/10 06:09:37;;;;;;;;;;;10.60;99.90;;;;;;5041448;28;19912;-88
2022/10/10 06:12:03;;;;;;;;;;;10.70;99.90;;;;;;5057951;28;19989;-89
2022/10/10 06:14:28;;;;;;;;;;;10.70;99.90;;;;;;5082312;28;19901;-90
2022/10/10 06:16:54;;;;;;;;;;;10.80;99.90;;;;;;5064885;28;19905;-88
2022/10/10 06:19:20;;;;;;;;;;;10.80;99.90;;;;;;5064294;28;19903;-89
2022/10/10 06:21:47;;;;;;;;;;;10.80;99.90;;;;;;5064309;28;19901;-90
2022/10/10 06:24:13;;;;;;;;;;;10.90;99.90;;;;;;5046609;28;19943;-88
2022/10/10 06:26:39;;;;;;;;;;;10.90;99.90;;;;;;5078788;28;19912;-87
2022/10/10 06:29:05;;;;;;;;;;;11.00;99.90;;;;;;5060143;28;19908;-88
2022/10/10 06:31:31;;;;;;;;;;;11.00;99.90;;;;;;5076928;28;19904;-89
2022/10/10 06:33:56;;;;;;;;;;;11.10;99.90;;;;;;5043101;28;19989;-89
2022/10/10 06:36:22;;;;;;;;;;;11.20;99.90;;;;;;5064311;28;19937;-89
2022/10/10 06:38:48;;;;;;;;;;;11.20;99.90;;;;;;5063997;28;19963;-90
2022/10/10 06:41:13;;;;;;;;;;;11.30;99.90;;;;;;5081293;28;19917;-88
2022/10/10 06:43:40;;;;;;;;;;;11.40;99.90;;;;;;5047138;28;19897;-90
2022/10/10 06:46:06;;;;;;;;;;;11.40;99.90;;;;;;5045889;28;19917;-88
2022/10/10 06:48:34;;;;;;;;;;;11.50;99.90;;;;;;5055363;28;19915;-88
2022/10/10 06:51:01;;;;;;;;;;;11.60;99.90;;;;;;5056393;28;20319;-88
2022/10/10 06:53:27;;;;;;;;;;;11.60;99.90;;;;;;5043582;28;19913;-89
2022/10/10 06:55:54;;;;;;;;;;;11.70;99.90;;;;;;5047079;28;19921;-88
2022/10/10 06:58:20;;;;;;;;;;;11.80;99.90;;;;;;5063135;28;19901;-88
2022/10/10 07:00:50;;;;;;;;;;;11.90;99.90;;;;;;5063388;28;19901;-89
2022/10/10 07:03:16;;;;;;;;;;;11.90;99.90;;;;;;5062914;28;19912;-89
2022/10/10 07:05:42;;;;;;;;;;;12.00;99.90;;;;;;5063293;28;19909;-88
2022/10/10 07:08:08;;;;;;;;;;;12.10;99.90;;;;;;5062814;28;19905;-88
2022/10/10 07:10:34;;;;;;;;;;;12.20;99.90;;;;;;5054716;28;19916;-88
2022/10/10 07:12:59;;;;;;;;;;;12.30;99.90;;;;;;5055274;28;19897;-89
2022/10/10 07:15:25;;;;;;;;;;;12.40;99.90;;;;;;5045042;28;19924;-88
2022/10/10 07:18:00;;;;;;;;;;;12.50;99.90;;;;;;5080762;28;19923;-89
2022/10/10 07:20:26;;;;;;;;;;;12.60;99.90;;;;;;5063680;28;19909;-89
2022/10/10 07:22:52;;;;;;;;;;;12.70;99.90;;;;;;5062720;28;19919;-87
2022/10/10 07:25:17;;;;;;;;;;;12.70;99.90;;;;;;5059269;28;20339;-88
2022/10/10 07:27:43;;;;;;;;;;;12.80;99.90;;;;;;5043653;28;19993;-87
2022/10/10 07:30:10;;;;;;;;;;;12.90;99.90;;;;;;5060461;28;19931;-89
2022/10/10 07:32:36;;;;;;;;;;;13.00;99.90;;;;;;5053978;28;19913;-88
2022/10/10 07:35:02;;;;;;;;;;;13.00;99.90;;;;;;5052593;28;19913;-88
2022/10/10 07:37:28;;;;;;;;;;;13.00;99.90;;;;;;5038619;28;19996;-89
2022/10/10 07:39:54;;;;;;;;;;;13.10;99.90;;;;;;5058125;28;19920;-88
2022/10/10 07:42:19;;;;;;;;;;;13.20;99.90;;;;;;5038448;28;19909;-87
2022/10/10 07:44:45;;;;;;;;;;;13.20;99.90;;;;;;5041094;28;19921;-89
2022/10/10 07:47:11;;;;;;;;;;;13.20;99.90;;;;;;5057041;28;19916;-87
2022/10/10 07:49:37;;;;;;;;;;;13.30;99.90;;;;;;5056006;28;19917;-88
2022/10/10 07:52:03;;;;;;;;;;;13.30;99.90;;;;;;5042636;28;19964;-88
2022/10/10 07:54:29;;;;;;;;;;;13.30;99.90;;;;;;5059871;28;19912;-88
2022/10/10 07:56:55;;;;;;;;;;;13.40;99.90;;;;;;5079618;28;19924;-86
2022/10/10 07:59:21;;;;;;;;;;;13.50;99.90;;;;;;5079802;28;19905;-87
2022/10/10 08:01:46;;;;;;;;;;;13.50;99.90;;;;;;5079969;28;19909;-88
2022/10/10 08:04:12;;;;;;;;;;;13.60;99.90;;;;;;5079846;28;19944;-89
2022/10/10 08:06:38;;;;;;;;;;;13.60;99.90;;;;;;5062306;28;19901;-86
2022/10/10 08:09:03;;;;;;;;;;;13.70;99.90;;;;;;5052590;28;19897;-89
2022/10/10 08:11:29;;;;;;;;;;;13.80;99.90;;;;;;5058527;28;19909;-87
2022/10/10 08:13:55;;;;;;;;;;;13.90;99.90;;;;;;5058810;28;19956;-89
2022/10/10 08:16:21;;;;;;;;;;;13.90;99.90;;;;;;5054522;28;19932;-88
2022/10/10 08:18:47;;;;;;;;;;;14.00;99.90;;;;;;5071228;28;19916;-89
2022/10/10 08:21:13;;;;;;;;;;;14.00;99.90;;;;;;5053674;28;19940;-86
2022/10/10 08:23:39;;;;;;;;;;;14.10;99.90;;;;;;5068647;28;19988;-87
2022/10/10 08:26:06;;;;;;;;;;;14.20;99.90;;;;;;5049752;28;19913;-89
2022/10/10 08:28:32;;;;;;;;;;;14.30;99.90;;;;;;5049176;28;20379;-87
2022/10/10 08:30:58;;;;;;;;;;;14.30;99.90;;;;;;5040332;28;19925;-88
2022/10/10 08:33:27;;;;;;;;;;;14.40;99.90;;;;;;5060907;28;19927;-90
2022/10/10 08:35:53;;;;;;;;;;;14.60;99.90;;;;;;5049020;28;19987;-88
2022/10/10 08:38:19;;;;;;;;;;;14.80;99.90;;;;;;5049491;28;20264;-87
2022/10/10 08:40:50;;;;;;;;;;;14.90;99.90;;;;;;5068924;28;19908;-88
2022/10/10 08:43:30;;;;;;;;;;;15.10;99.90;;;;;;5035842;28;19913;-90
2022/10/10 08:45:57;;;;;;;;;;;15.60;99.90;;;;;;5052558;28;19984;-89
2022/10/10 08:48:24;;;;;;;;;;;16.20;99.90;;;;;;5050131;28;19962;-91
2022/10/10 08:50:54;;;;;;;;;;;16.70;99.90;;;;;;5065734;28;19919;-87
2022/10/10 08:53:31;;;;;;;;;;;17.30;99.90;;;;;;5067434;28;19912;-89
2022/10/10 08:55:57;;;;;;;;;;;17.40;99.90;;;;;;5068089;28;19912;-90
2022/10/10 08:58:28;;;;;;;;;;;17.70;99.90;;;;;;5068715;28;19920;-88
2022/10/10 09:01:13;;;;;;;;;;;19.10;99.90;;;;;;5068724;28;19908;-87
2022/10/10 09:03:38;;;;;;;;;;;19.30;99.90;;;;;;5072476;28;19913;-88
2022/10/10 09:06:04;;;;;;;;;;;19.80;99.90;;;;;;5074152;28;19923;-89
2022/10/10 09:08:33;;;;;;;;;;;20.40;99.80;;;;;;5039600;28;19897;-89
2022/10/10 09:11:03;;;;;;;;;;;20.50;99.30;;;;;;5051259;28;19984;-88
2022/10/10 09:13:32;;;;;;;;;;;20.60;98.80;;;;;;5068394;28;20439;-89
2022/10/10 09:16:06;;;;;;;;;;;21.10;98.00;;;;;;5068811;28;19912;-89
2022/10/10 09:18:38;;;;;;;;;;;20.90;97.60;;;;;;5066566;28;20037;-89
2022/10/10 09:21:14;;;;;;;;;;;21.30;97.10;;;;;;5056786;28;19897;-90
2022/10/10 09:23:43;;;;;;;;;;;22.00;96.10;;;;;;5061632;28;19923;-89
2022/10/10 09:26:12;;;;;;;;;;;21.90;95.30;;;;;;5044643;28;19911;-91
2022/10/10 09:28:42;;;;;;;;;;;22.30;95.30;;;;;;5060997;28;19904;-91
2022/10/10 09:31:15;;;;;;;;;;;22.90;94.30;;;;;;5044200;28;19920;-89
2022/10/10 09:33:43;;;;;;;;;;;22.40;94.20;;;;;;5078448;28;19905;-90
2022/10/10 09:36:16;;;;;;;;;;;22.20;94.50;;;;;;5060610;28;20194;-89
2022/10/10 09:38:45;;;;;;;;;;;22.90;93.90;;;;;;5060848;28;19978;-90
2022/10/10 09:41:14;;;;;;;;;;;23.00;93.30;;;;;;5060957;28;19955;-90
2022/10/10 09:43:40;;;;;;;;;;;23.40;92.70;;;;;;5060261;28;19927;-87
2022/10/10 09:46:06;;;;;;;;;;;23.80;92.50;;;;;;5043637;28;19905;-89
2022/10/10 09:48:35;;;;;;;;;;;24.90;91.20;;;;;;5043900;28;19917;-90
2022/10/10 09:51:05;;;;;;;;;;;25.10;90.40;;;;;;5078063;28;19901;-92
2022/10/10 09:53:31;;;;;;;;;;;25.40;89.40;;;;;;5044562;28;19904;-92
2022/10/10 09:55:57;;;;;;;;;;;25.60;88.80;;;;;;5060789;28;19935;-91
2022/10/10 09:58:23;;;;;;;;;;;25.20;88.00;;;;;;5060969;28;19925;-91
2022/10/10 10:00:49;;;;;;;;;;;25.70;87.80;;;;;;5044268;28;19924;-91
2022/10/10 10:03:16;;;;;;;;;;;25.80;86.70;;;;;;5043872;28;19946;-91
2022/10/10 10:06:00;;;;;;;;;;;26.40;85.60;;;;;;5073259;28;19913;-88
2022/10/10 10:08:30;;;;;;;;;;;26.10;84.30;;;;;;5035761;28;19921;-88
2022/10/10 10:10:57;;;;;;;;;;;25.90;85.30;;;;;;5054624;28;20019;-87
2022/10/10 10:13:28;;;;;;;;;;;26.20;84.40;;;;;;5053860;28;19909;-87
2022/10/10 10:15:59;;;;;;;;;;;26.70;82.80;;;;;;5037652;28;19909;-87
2022/10/10 10:18:27;;;;;;;;;;;27.30;81.80;;;;;;5032463;28;19940;-88
2022/10/10 10:21:08;;;;;;;;;;;27.00;80.90;;;;;;5050107;28;19944;-88
2022/10/10 10:23:35;;;;;;;;;;;27.00;81.30;;;;;;5049389;28;19912;-87
2022/10/10 10:26:02;;;;;;;;;;;28.10;79.40;;;;;;5039326;28;19916;-87
2022/10/10 10:28:28;;;;;;;;;;;29.10;77.50;;;;;;5058705;28;19972;-89
2022/10/10 10:30:55;;;;;;;;;;;28.70;76.40;;;;;;5077477;28;19905;-89
2022/10/10 10:33:21;;;;;;;;;;;28.00;76.60;;;;;;5077701;28;19916;-89
2022/10/10 10:35:54;;;;;;;;;;;27.80;76.80;;;;;;5059867;28;19917;-89
2022/10/10 10:38:20;;;;;;;;;;;28.40;75.40;;;;;;5060449;28;19921;-88
2022/10/10 10:40:55;;;;;;;;;;;27.40;76.30;;;;;;5075112;28;19976;-88
2022/10/10 10:43:21;;;;;;;;;;;26.90;77.20;;;;;;5081197;28;19901;-88
2022/10/10 10:46:06;;;;;;;;;;;27.10;77.30;;;;;;5080572;28;19923;-89
2022/10/10 10:48:34;;;;;;;;;;;27.10;77.30;;;;;;5080589;28;19976;-88
2022/10/10 10:51:19;;;;;;;;;;;26.80;77.00;;;;;;5063546;28;19932;-89
2022/10/10 10:53:47;;;;;;;;;;;27.50;76.40;;;;;;5081024;28;19932;-89
2022/10/10 10:56:30;;;;;;;;;;;27.80;75.20;;;;;;5046972;28;19986;-89
2022/10/10 10:59:12;;;;;;;;;;;28.10;74.80;;;;;;5063645;28;19928;-89
2022/10/10 11:01:38;;;;;;;;;;;27.50;75.40;;;;;;5047153;28;19928;-91
2022/10/10 11:04:23;;;;;;;;;;;26.70;75.90;;;;;;5046806;28;19960;-90
2022/10/10 11:06:59;;;;;;;;;;;25.80;77.10;;;;;;4989119;28;19939;-87
2022/10/10 11:09:33;;;;;;;;;;;25.90;77.70;;;;;;5082191;22;19926;-82
2022/10/10 11:12:16;;;;;;;;;;;25.50;77.70;;;;;;5046988;28;19936;-81
2022/10/10 11:14:55;;;;;;;;;;;25.50;78.30;;;;;;5047178;28;19921;-81
2022/10/10 11:17:26;;;;;;;;;;;25.20;78.00;;;;;;5040866;28;20282;-80
2022/10/10 11:19:58;;;;;;;;;;;24.40;79.80;;;;;;5053128;28;19921;-80
2022/10/10 11:22:25;;;;;;;;;;;23.70;81.20;;;;;;5061016;28;19917;-82
2022/10/10 11:24:50;;;;;;;;;;;23.20;82.50;;;;;;5069437;28;20007;-79
2022/10/10 11:27:19;;;;;;;;;;;22.70;83.80;;;;;;5078710;28;19911;-79
2022/10/10 11:30:04;;;;;;;;;;;22.70;84.30;;;;;;5075865;28;19951;-81
2022/10/10 11:32:32;;;;;;;;;;;22.80;83.90;;;;;;5061036;28;19944;-81
2022/10/10 11:35:17;;;;;;;;;;;22.70;84.40;;;;;;5059446;28;19947;-80
2022/10/10 11:37:46;;;;;;;;;;;22.60;84.10;;;;;;5060084;28;19913;-78
2022/10/10 11:40:38;;;;;;;;;;;22.80;84.10;;;;;;5059260;28;19913;-81
2022/10/10 11:43:06;;;;;;;;;;;23.50;83.10;;;;;;5059246;28;19997;-81
2022/10/10 11:45:43;;;;;;;;;;;23.90;82.20;;;;;;5061664;28;19931;-81
2022/10/10 11:48:20;;;;;;;;;;;23.70;81.90;;;;;;5059595;28;19952;-81
2022/10/10 11:50:49;;;;;;;;;;;23.00;83.10;;;;;;5060304;28;19920;-81
2022/10/10 11:53:25;;;;;;;;;;;22.80;84.30;;;;;;5058943;28;19920;-79
2022/10/10 11:56:01;;;;;;;;;;;22.90;84.60;;;;;;5059150;28;19916;-81
2022/10/10 11:58:27;;;;;;;;;;;23.00;84.40;;;;;;5062099;28;19913;-80
2022/10/10 12:01:12;;;;;;;;;;;23.30;83.90;;;;;;5062292;28;20288;-81
2022/10/10 12:03:38;;;;;;;;;;;23.60;83.30;;;;;;5059636;28;19920;-81
2022/10/10 12:06:13;;;;;;;;;;;24.40;82.90;;;;;;5060209;28;19915;-79
2022/10/10 12:08:40;;;;;;;;;;;24.90;81.30;;;;;;5059479;28;19916;-80
2022/10/10 12:11:06;;;;;;;;;;;25.00;80.60;;;;;;5060257;28;19966;-81
2022/10/10 12:13:38;;;;;;;;;;;24.70;81.00;;;;;;5062455;28;19913;-81
2022/10/10 12:16:06;;;;;;;;;;;24.70;81.40;;;;;;5068783;28;19913;-81
2022/10/10 12:18:43;;;;;;;;;;;24.20;82.00;;;;;;5064596;28;19909;-80
2022/10/10 12:21:11;;;;;;;;;;;23.40;83.30;;;;;;5070555;28;19931;-80
2022/10/10 12:23:37;;;;;;;;;;;22.30;85.90;;;;;;5076225;28;19908;-79
2022/10/10 12:26:03;;;;;;;;;;;21.60;88.10;;;;;;5075594;28;19917;-80
2022/10/10 12:28:36;;;;;;;;;;;21.10;89.60;;;;;;5077193;28;19944;-78
2022/10/10 12:31:01;;;;;;;;;;;20.70;90.50;;;;;;5077887;28;19928;-80
2022/10/10 12:33:27;;;;;;;;;;;20.40;91.10;;;;;;5069322;28;19913;-81
2022/10/10 12:35:53;;;;;;;;;;;20.20;91.70;;;;;;5062196;28;19921;-82
2022/10/10 12:38:20;;;;;;;;;;;19.80;92.30;;;;;;5061872;28;19917;-82
2022/10/10 12:41:06;;;;;;;;;;;19.60;92.90;;;;;;5061664;28;20364;-82
2022/10/10 12:43:31;;;;;;;;;;;19.40;93.50;;;;;;5059365;28;20427;-82
2022/10/10 12:46:07;;;;;;;;;;;19.60;93.80;;;;;;5058933;28;20110;-81
2022/10/10 12:48:33;;;;;;;;;;;19.50;94.10;;;;;;5056348;28;19913;-81
2022/10/10 12:50:59;;;;;;;;;;;19.40;94.70;;;;;;5058997;28;19948;-80
2022/10/10 12:53:30;;;;;;;;;;;19.40;95.00;;;;;;5070201;28;19913;-79
2022/10/10 12:55:57;;;;;;;;;;;19.40;95.20;;;;;;5069900;28;19917;-81
2022/10/10 12:58:25;;;;;;;;;;;19.50;95.20;;;;;;5067949;28;20392;-79
2022/10/10 13:00:51;;;;;;;;;;;19.70;95.10;;;;;;5058886;28;19913;-79
2022/10/10 13:03:17;;;;;;;;;;;19.70;95.00;;;;;;5069376;28;19908;-79
2022/10/10 13:05:43;;;;;;;;;;;19.80;95.40;;;;;;5060050;28;20007;-81
2022/10/10 13:08:15;;;;;;;;;;;19.90;95.60;;;;;;5059220;28;20357;-79
2022/10/10 13:10:41;;;;;;;;;;;19.90;95.30;;;;;;5065780;28;19916;-82
2022/10/10 13:13:17;;;;;;;;;;;19.80;95.70;;;;;;5058181;28;19959;-82
2022/10/10 13:15:53;;;;;;;;;;;19.90;95.70;;;;;;5063358;28;19917;-80
2022/10/10 13:18:36;;;;;;;;;;;19.80;95.80;;;;;;5064980;28;19952;-81
2022/10/10 13:21:03;;;;;;;;;;;19.70;96.10;;;;;;5066580;28;20434;-80
2022/10/10 13:23:28;;;;;;;;;;;19.60;96.20;;;;;;5068209;28;19943;-81
2022/10/10 13:25:54;;;;;;;;;;;19.50;96.70;;;;;;5067024;28;20384;-81
2022/10/10 13:28:20;;;;;;;;;;;19.30;97.00;;;;;;5066181;28;19919;-79
2022/10/10 13:30:47;;;;;;;;;;;19.30;97.50;;;;;;5062037;28;19913;-80
2022/10/10 13:33:16;;;;;;;;;;;19.30;97.60;;;;;;5063354;28;19908;-79
2022/10/10 13:35:43;;;;;;;;;;;19.30;97.40;;;;;;5060448;28;19920;-80
2022/10/10 13:38:10;;;;;;;;;;;19.20;97.70;;;;;;5059534;28;20368;-83
2022/10/10 13:40:37;;;;;;;;;;;19.20;97.80;;;;;;5061939;28;19913;-81
2022/10/10 13:43:03;;;;;;;;;;;19.20;97.80;;;;;;5064870;28;19920;-79
2022/10/10 13:45:36;;;;;;;;;;;19.30;97.90;;;;;;5060960;28;19935;-80
2022/10/10 13:48:02;;;;;;;;;;;19.40;98.20;;;;;;5060375;28;20372;-82
2022/10/10 13:50:29;;;;;;;;;;;19.30;97.90;;;;;;5064430;28;19962;-82
2022/10/10 13:53:13;;;;;;;;;;;19.20;98.20;;;;;;5047294;28;19913;-82
2022/10/10 13:55:39;;;;;;;;;;;19.10;98.20;;;;;;5064086;28;19923;-81
2022/10/10 13:58:06;;;;;;;;;;;19.10;98.40;;;;;;5061052;28;19909;-82
2022/10/10 14:00:32;;;;;;;;;;;19.10;98.50;;;;;;5062316;28;19912;-80
2022/10/10 14:02:58;;;;;;;;;;;19.30;98.10;;;;;;5064259;28;19920;-80
2022/10/10 14:05:26;;;;;;;;;;;19.30;97.70;;;;;;5060151;28;19920;-81
2022/10/10 14:07:52;;;;;;;;;;;19.20;97.90;;;;;;5059065;28;20004;-80
2022/10/10 14:10:21;;;;;;;;;;;19.30;97.70;;;;;;5059463;28;19942;-82
2022/10/10 14:12:48;;;;;;;;;;;19.20;97.90;;;;;;5064755;28;19908;-82
2022/10/10 14:15:33;;;;;;;;;;;19.30;97.70;;;;;;5072007;28;19983;-79
2022/10/10 14:17:58;;;;;;;;;;;19.40;97.50;;;;;;5064205;28;19917;-81
2022/10/10 14:20:24;;;;;;;;;;;19.40;97.60;;;;;;5064356;28;19984;-79
2022/10/10 14:22:50;;;;;;;;;;;19.40;97.50;;;;;;5066241;28;20360;-82
2022/10/10 14:25:15;;;;;;;;;;;19.40;97.50;;;;;;5061718;28;19909;-81
2022/10/10 14:27:41;;;;;;;;;;;19.40;97.60;;;;;;5060946;28;19944;-81
2022/10/10 14:30:07;;;;;;;;;;;19.30;97.80;;;;;;5060016;28;20345;-81